Airport View

Enter AWOS ICAO identifier for current METAR.

ex. KFNL

KPLR 170955Z AUTO 00000KT 4SM BR M00/M00 A3008 RMK A01

17 Nov 2019 09:58

Frequency: 119.625

Phone: (205) 884-4359

Other Area AWOS: KASN - KANB - KSCD - KBHM

TAF KANB 170520Z 1706/1806 06002KT P6SM SCT040 FM171800 24004KT P6SM SCT040 SCT250